createdAt,value
2019-03-06T00:03:02.372Z,5.10
2019-03-06T00:12:56.644Z,5.00
2019-03-06T00:15:25.180Z,4.90
2019-03-06T00:17:53.797Z,4.90
2019-03-06T00:20:22.324Z,4.80
2019-03-06T00:22:50.807Z,4.80
2019-03-06T00:25:19.364Z,4.80
2019-03-06T00:27:47.838Z,4.80
2019-03-06T00:30:17.872Z,4.80
2019-03-06T00:32:46.420Z,4.80
2019-03-06T00:35:17.186Z,4.80
2019-03-06T00:37:45.765Z,4.80
2019-03-06T00:40:32.909Z,4.60
2019-03-06T00:43:01.563Z,4.50
2019-03-06T00:45:30.130Z,4.50
2019-03-06T00:47:58.609Z,4.50
2019-03-06T00:50:27.188Z,4.60
2019-03-06T00:52:55.684Z,4.60
2019-03-06T00:55:24.175Z,4.60
2019-03-06T00:57:52.745Z,4.60
2019-03-06T01:00:24.301Z,4.40
2019-03-06T01:02:53.029Z,4.40
2019-03-06T01:05:21.909Z,4.30
2019-03-06T01:07:55.381Z,4.30
2019-03-06T01:10:24.073Z,4.20
2019-03-06T01:12:52.705Z,4.20
2019-03-06T01:15:21.738Z,4.20
2019-03-06T01:17:50.656Z,4.10
2019-03-06T01:20:19.333Z,4.10
2019-03-06T01:22:47.900Z,4.10
2019-03-06T01:25:19.153Z,4.10
2019-03-06T01:27:47.862Z,4.10
2019-03-06T01:30:27.567Z,4.10
2019-03-06T01:33:15.721Z,4.20
2019-03-06T01:35:48.988Z,4.10
2019-03-06T01:38:34.163Z,4.10
2019-03-06T01:41:16.340Z,4.20
2019-03-06T01:43:46.729Z,4.10
2019-03-06T01:46:15.272Z,4.10
2019-03-06T01:48:43.852Z,4.10
2019-03-06T01:51:12.313Z,4.10
2019-03-06T01:53:40.799Z,4.10
2019-03-06T01:56:09.728Z,4.10
2019-03-06T01:58:38.284Z,4.10
2019-03-06T02:01:06.917Z,4.00
2019-03-06T02:03:35.560Z,4.00
2019-03-06T02:06:04.692Z,4.00
2019-03-06T02:08:33.723Z,4.00
2019-03-06T02:11:02.212Z,4.00
2019-03-06T02:13:30.721Z,4.00
2019-03-06T02:15:59.412Z,4.00
2019-03-06T02:18:27.985Z,4.00
2019-03-06T02:20:56.727Z,4.00
2019-03-06T02:23:25.369Z,4.00
2019-03-06T02:25:53.852Z,4.00
2019-03-06T02:28:22.312Z,4.10
2019-03-06T02:30:50.815Z,4.10
2019-03-06T02:33:19.386Z,4.00
2019-03-06T02:35:47.894Z,4.00
2019-03-06T02:38:16.402Z,4.10
2019-03-06T02:40:44.925Z,4.10
2019-03-06T02:43:13.417Z,4.00
2019-03-06T02:45:41.982Z,4.00
2019-03-06T02:48:10.637Z,3.90
2019-03-06T02:50:39.169Z,3.90
2019-03-06T02:53:07.737Z,3.90
2019-03-06T02:55:36.311Z,3.90
2019-03-06T02:58:09.384Z,3.90
2019-03-06T03:00:39.745Z,4.00
2019-03-06T03:03:09.947Z,3.90
2019-03-06T03:05:42.855Z,3.90
2019-03-06T03:08:11.505Z,3.90
2019-03-06T03:10:39.997Z,3.90
2019-03-06T03:13:08.549Z,3.90
2019-03-06T03:15:37.062Z,3.80
2019-03-06T03:18:05.701Z,3.80
2019-03-06T03:20:34.214Z,3.80
2019-03-06T03:23:02.749Z,3.80
2019-03-06T03:25:31.220Z,3.90
2019-03-06T03:27:59.701Z,3.90
2019-03-06T03:30:28.261Z,4.00
2019-03-06T03:32:56.835Z,4.00
2019-03-06T03:35:25.410Z,4.00
2019-03-06T03:37:53.908Z,3.90
2019-03-06T03:40:22.582Z,3.90
2019-03-06T03:42:51.163Z,3.80
2019-03-06T03:45:19.707Z,3.80
2019-03-06T03:47:48.274Z,3.70
2019-03-06T03:50:16.913Z,3.60
2019-03-06T03:52:45.473Z,3.60
2019-03-06T03:55:18.240Z,3.60
2019-03-06T03:57:46.791Z,3.50
2019-03-06T04:00:22.648Z,3.50
2019-03-06T04:02:51.748Z,3.50
2019-03-06T04:05:20.311Z,3.50
2019-03-06T04:07:48.852Z,3.60
2019-03-06T04:10:17.459Z,3.60
2019-03-06T04:12:45.957Z,3.60
2019-03-06T04:15:18.208Z,3.60
2019-03-06T04:17:46.795Z,3.70
2019-03-06T04:20:16.429Z,3.70
2019-03-06T04:22:45.069Z,3.70
2019-03-06T04:25:13.863Z,3.70
2019-03-06T06:04:56.926Z,3.70
2019-03-06T06:07:25.492Z,3.20
2019-03-06T06:09:53.997Z,3.10
2019-03-06T06:12:22.474Z,3.10
2019-03-06T06:14:51.152Z,3.10
2019-03-06T06:17:20.012Z,3.00
2019-03-06T06:19:48.618Z,3.10
2019-03-06T06:22:27.878Z,3.10
2019-03-06T06:24:56.453Z,3.10
2019-03-06T06:27:25.104Z,3.10
2019-03-06T06:29:53.680Z,3.10
2019-03-06T06:32:22.200Z,3.10
2019-03-06T06:34:50.802Z,3.10
2019-03-06T06:37:19.381Z,3.10
2019-03-06T06:39:47.949Z,3.10
2019-03-06T06:42:16.560Z,3.20
2019-03-06T06:44:45.126Z,3.20
2019-03-06T06:47:13.642Z,3.30
2019-03-06T06:49:42.158Z,3.30
2019-03-06T06:52:22.357Z,3.20
2019-03-06T06:54:53.941Z,3.20
2019-03-06T06:57:25.599Z,3.30
2019-03-06T07:00:14.012Z,3.30
2019-03-06T07:03:08.116Z,3.40
2019-03-06T07:05:38.330Z,3.50
2019-03-06T07:08:13.766Z,3.70
2019-03-06T07:13:19.665Z,4.30
2019-03-06T07:16:06.088Z,9.20
2019-03-06T07:18:52.829Z,10.30
2019-03-06T07:21:34.957Z,11.20
2019-03-06T07:24:05.195Z,11.70
2019-03-06T07:26:47.452Z,12.00
2019-03-06T07:31:50.073Z,12.20
2019-03-06T07:34:29.117Z,12.50
2019-03-06T07:36:59.453Z,12.50
2019-03-06T07:39:29.309Z,12.60
2019-03-06T07:42:05.476Z,12.70
2019-03-06T07:44:41.252Z,12.70
2019-03-06T07:47:20.097Z,12.80
2019-03-06T07:50:00.371Z,13.00
2019-03-06T07:52:46.884Z,13.10
2019-03-06T07:55:20.459Z,13.10
2019-03-06T07:58:11.792Z,13.10
2019-03-06T08:00:40.465Z,13.10
2019-03-06T08:03:09.135Z,13.20
2019-03-06T08:05:37.752Z,13.20
2019-03-06T08:08:06.334Z,13.30
2019-03-06T08:10:36.782Z,13.30
2019-03-06T08:13:06.897Z,13.40
2019-03-06T08:15:43.017Z,13.40
2019-03-06T08:18:46.176Z,13.40
2019-03-06T08:21:19.153Z,13.40
2019-03-06T08:23:49.683Z,13.40
2019-03-06T08:26:18.270Z,13.40
2019-03-06T08:28:46.822Z,13.50
2019-03-06T08:31:17.100Z,13.50
2019-03-06T08:33:45.597Z,13.50
2019-03-06T08:36:16.392Z,13.60
2019-03-06T08:38:50.568Z,13.70
2019-03-06T08:41:19.548Z,13.70
2019-03-06T08:43:48.075Z,13.70
2019-03-06T08:46:27.297Z,13.80
2019-03-06T08:49:03.016Z,13.80
2019-03-06T08:51:36.213Z,13.80
2019-03-06T08:54:22.568Z,13.90
2019-03-06T08:57:19.680Z,13.90
2019-03-06T08:59:52.789Z,13.90
2019-03-06T09:02:25.565Z,13.90
2019-03-06T09:05:02.161Z,14.00
2019-03-06T09:07:41.216Z,13.90
2019-03-06T09:10:14.612Z,14.00
2019-03-06T09:12:44.788Z,14.00
2019-03-06T09:15:19.071Z,14.00
2019-03-06T09:18:36.968Z,14.10
2019-03-06T09:21:07.382Z,14.10
2019-03-06T09:23:43.453Z,14.10
2019-03-06T09:26:22.704Z,14.10
2019-03-06T09:29:01.268Z,14.10
2019-03-06T09:31:30.576Z,14.20
2019-03-06T09:34:09.741Z,14.20
2019-03-06T09:36:41.613Z,14.20
2019-03-06T09:39:20.755Z,14.30
2019-03-06T09:42:09.049Z,14.30
2019-03-06T09:44:39.273Z,14.30
2019-03-06T09:47:15.068Z,14.20
2019-03-06T09:50:03.185Z,14.30
2019-03-06T09:52:51.664Z,14.30
2019-03-06T09:55:24.722Z,14.30
2019-03-06T09:58:36.868Z,14.40
2019-03-06T10:01:10.156Z,14.40
2019-03-06T10:03:55.205Z,14.40
2019-03-06T10:06:37.024Z,14.40
2019-03-06T10:09:10.344Z,14.50
2019-03-06T10:11:43.182Z,14.50
2019-03-06T10:14:16.203Z,14.50
2019-03-06T10:16:48.995Z,14.50
2019-03-06T10:19:18.253Z,14.50
2019-03-06T10:21:46.845Z,14.60
2019-03-06T10:24:15.429Z,14.60
2019-03-06T10:26:44.030Z,14.60
2019-03-06T10:29:12.626Z,14.50
2019-03-06T10:31:41.178Z,14.50
2019-03-06T10:34:09.760Z,14.50
2019-03-06T10:36:38.349Z,14.50
2019-03-06T10:39:07.069Z,14.60
2019-03-06T10:41:35.676Z,14.60
2019-03-06T10:44:04.319Z,14.70
2019-03-06T10:46:32.992Z,14.60
2019-03-06T10:49:01.535Z,14.70
2019-03-06T10:51:31.095Z,14.80
2019-03-06T10:54:00.042Z,14.80
2019-03-06T10:56:28.868Z,15.00
2019-03-06T10:58:58.292Z,15.00
2019-03-06T11:01:27.117Z,15.00
2019-03-06T11:04:09.165Z,15.00
2019-03-06T11:06:37.945Z,14.90
2019-03-06T11:09:09.291Z,14.90
2019-03-06T11:11:38.116Z,14.80
2019-03-06T11:14:08.440Z,15.00
2019-03-06T11:16:39.305Z,15.20
2019-03-06T11:19:07.676Z,15.20
2019-03-06T11:21:36.396Z,15.20
2019-03-06T11:24:06.865Z,15.20
2019-03-06T11:26:36.497Z,15.20
2019-03-06T11:29:07.314Z,15.10
2019-03-06T11:31:36.353Z,15.10
2019-03-06T11:34:06.569Z,15.10
2019-03-06T11:36:35.291Z,15.30
2019-03-06T11:39:05.485Z,15.60
2019-03-06T11:41:34.080Z,15.60
2019-03-06T11:44:02.757Z,15.70
2019-03-06T11:46:31.411Z,15.70
2019-03-06T11:49:00.079Z,15.50
2019-03-06T11:51:28.735Z,15.30
2019-03-06T11:53:57.412Z,15.20
2019-03-06T11:56:26.344Z,14.90
2019-03-06T11:58:55.025Z,14.90
2019-03-06T12:01:24.088Z,14.80
2019-03-06T12:03:53.773Z,14.70
2019-03-06T12:06:22.366Z,14.70
2019-03-06T12:09:09.241Z,14.70
2019-03-06T12:11:37.949Z,14.80
2019-03-06T12:14:06.683Z,14.70
2019-03-06T12:16:41.567Z,14.80
2019-03-06T12:19:05.585Z,14.80
2019-03-06T12:21:34.180Z,14.90
2019-03-06T12:24:02.773Z,14.90
2019-03-06T12:26:31.338Z,15.00
2019-03-06T12:28:59.928Z,15.00
2019-03-06T12:31:28.525Z,15.10
2019-03-06T12:33:57.122Z,15.20
2019-03-06T12:36:25.872Z,15.30
2019-03-06T12:38:54.538Z,15.20
2019-03-06T12:41:23.093Z,15.10
2019-03-06T12:43:51.764Z,15.00
2019-03-06T12:46:23.751Z,15.00
2019-03-06T12:48:55.997Z,15.10
2019-03-06T12:51:24.666Z,15.20
2019-03-06T12:53:53.248Z,15.10
2019-03-06T12:56:21.832Z,15.10
2019-03-06T12:58:50.436Z,15.00
2019-03-06T13:01:19.144Z,15.00
2019-03-06T13:03:47.869Z,15.00
2019-03-06T13:06:24.140Z,15.20
2019-03-06T13:08:50.422Z,15.20
2019-03-06T13:11:17.156Z,15.40
2019-03-06T13:13:45.805Z,15.60
2019-03-06T13:16:14.569Z,15.50
2019-03-06T13:18:43.526Z,15.50
2019-03-06T13:21:12.532Z,15.50
2019-03-06T13:23:42.751Z,15.60
2019-03-06T13:26:11.407Z,15.70
2019-03-06T13:28:39.988Z,15.70
2019-03-06T13:31:08.581Z,15.50
2019-03-06T13:33:44.404Z,15.50
2019-03-06T13:36:13.279Z,15.50
2019-03-06T13:38:42.508Z,15.50
2019-03-06T13:41:11.249Z,15.30
2019-03-06T13:43:39.827Z,15.10
2019-03-06T13:46:08.557Z,15.00
2019-03-06T13:48:37.113Z,14.80
2019-03-06T13:51:06.326Z,14.80
2019-03-06T13:53:34.925Z,14.80
2019-03-06T13:56:03.910Z,14.60
2019-03-06T13:58:32.569Z,14.60
2019-03-06T14:01:01.312Z,14.50
2019-03-06T14:03:29.918Z,14.50
2019-03-06T14:05:58.592Z,14.50
2019-03-06T14:08:27.185Z,14.50
2019-03-06T14:10:55.772Z,14.50
2019-03-06T14:13:24.367Z,14.50
2019-03-06T14:15:54.195Z,14.50
2019-03-06T14:18:22.825Z,14.50
2019-03-06T14:20:51.681Z,14.50
2019-03-06T14:23:20.475Z,14.50
2019-03-06T14:25:49.266Z,14.50
2019-03-06T14:28:17.883Z,14.40
2019-03-06T14:30:46.676Z,14.40
2019-03-06T14:33:15.329Z,14.40
2019-03-06T14:35:44.004Z,14.40
2019-03-06T14:38:12.586Z,14.50
2019-03-06T14:40:41.423Z,14.40
2019-03-06T14:43:10.262Z,14.40
2019-03-06T14:45:39.107Z,14.30
2019-03-06T14:48:07.797Z,14.40
2019-03-06T14:55:34.493Z,14.40
2019-03-06T14:58:03.205Z,14.40
2019-03-06T15:00:31.790Z,14.30
2019-03-06T15:03:00.372Z,14.30
2019-03-06T15:05:29.019Z,14.30
2019-03-06T15:07:57.668Z,14.30
2019-03-06T15:10:26.348Z,14.40
2019-03-06T15:12:54.901Z,14.40
2019-03-06T15:15:23.565Z,14.30
2019-03-06T15:17:52.163Z,14.30
2019-03-06T15:20:26.333Z,14.30
2019-03-06T15:22:55.653Z,14.30
2019-03-06T15:25:26.170Z,14.40
2019-03-06T15:27:54.901Z,14.30
2019-03-06T15:30:23.553Z,14.30
2019-03-06T15:32:52.210Z,14.30
2019-03-06T15:35:21.258Z,14.30
2019-03-06T15:37:49.994Z,14.30
2019-03-06T15:40:22.823Z,14.20
2019-03-06T15:42:51.477Z,14.20
2019-03-06T15:45:22.673Z,14.20
2019-03-06T15:48:21.434Z,14.20
2019-03-06T15:50:50.088Z,14.20
2019-03-06T15:53:24.509Z,14.20
2019-03-06T15:55:49.039Z,14.10
2019-03-06T15:58:17.677Z,14.10
2019-03-06T16:00:47.906Z,14.20
2019-03-06T16:03:17.735Z,14.20
2019-03-06T16:05:49.009Z,14.20
2019-03-06T16:08:17.664Z,14.20
2019-03-06T16:10:46.576Z,14.10
2019-03-06T16:13:16.784Z,14.10
2019-03-06T16:15:46.524Z,14.10
2019-03-06T16:18:15.245Z,14.10
2019-03-06T16:20:45.874Z,14.10
2019-03-06T16:23:15.705Z,14.10
2019-03-06T16:25:44.287Z,14.00
2019-03-06T16:28:12.868Z,14.00
2019-03-06T16:30:42.012Z,13.90
2019-03-06T16:33:10.654Z,13.90
2019-03-06T16:35:39.396Z,13.90
2019-03-06T16:38:08.016Z,13.90
2019-03-06T16:40:36.686Z,13.90
2019-03-06T16:43:05.462Z,13.90
2019-03-06T16:45:34.173Z,13.80
2019-03-06T16:48:02.814Z,13.80
2019-03-06T16:50:31.609Z,13.90
2019-03-06T16:53:00.252Z,13.80
2019-03-06T16:55:28.876Z,13.80
2019-03-06T16:57:57.604Z,13.80
2019-03-06T17:00:33.812Z,13.80
2019-03-06T17:03:04.102Z,13.80
2019-03-06T17:05:33.424Z,13.80
2019-03-06T17:08:02.769Z,13.80
2019-03-06T17:10:32.956Z,13.80
2019-03-06T17:13:02.574Z,13.80
2019-03-06T17:15:32.644Z,13.80
2019-03-06T17:18:01.573Z,13.80
2019-03-06T17:20:34.758Z,13.80
2019-03-06T17:23:04.108Z,13.70
2019-03-06T17:25:33.721Z,13.70
2019-03-06T17:28:02.453Z,13.60
2019-03-06T17:30:35.252Z,13.50
2019-03-06T17:33:09.275Z,13.50
2019-03-06T17:35:38.456Z,13.50
2019-03-06T17:38:12.316Z,13.40
2019-03-06T17:40:40.966Z,13.40
2019-03-06T17:43:09.985Z,13.40
2019-03-06T17:45:38.813Z,13.40
2019-03-06T17:48:08.635Z,13.50
2019-03-06T17:50:37.379Z,13.50
2019-03-06T17:53:06.630Z,13.50
2019-03-06T18:08:01.773Z,13.50
2019-03-06T18:10:30.492Z,13.40
2019-03-06T18:12:59.093Z,13.50
2019-03-06T18:15:28.013Z,13.40
2019-03-06T18:17:56.605Z,13.40
2019-03-06T18:27:53.190Z,13.50
2019-03-06T18:30:22.114Z,13.40
2019-03-06T18:32:50.824Z,13.50
2019-03-06T18:35:21.381Z,13.40
2019-03-06T18:37:50.107Z,13.30
2019-03-06T18:40:23.454Z,13.30
2019-03-06T18:42:52.102Z,13.60
2019-03-06T18:45:22.028Z,13.60
2019-03-06T18:47:50.652Z,13.60
2019-03-06T18:50:20.397Z,13.70
2019-03-06T18:52:49.329Z,13.70
2019-03-06T18:55:19.269Z,13.70
2019-03-06T18:57:47.945Z,13.70
2019-03-06T19:00:21.885Z,13.70
2019-03-06T19:02:52.190Z,13.70
2019-03-06T19:05:21.232Z,13.70
2019-03-06T19:07:54.953Z,13.70
2019-03-06T19:10:24.615Z,13.70
2019-03-06T19:12:53.473Z,13.60
2019-03-06T19:15:24.273Z,13.50
2019-03-06T19:18:08.100Z,13.50
2019-03-06T19:20:36.733Z,13.50
2019-03-06T19:23:05.739Z,13.50
2019-03-06T19:25:34.338Z,13.40
2019-03-06T19:28:02.984Z,13.50
2019-03-06T19:30:31.577Z,13.40
2019-03-06T19:33:00.202Z,13.40
2019-03-06T19:35:29.806Z,13.40
2019-03-06T19:37:58.441Z,13.50
2019-03-06T19:40:27.618Z,13.50
2019-03-06T19:42:56.245Z,13.60
2019-03-06T19:45:25.995Z,13.60
2019-03-06T19:47:54.649Z,13.70
2019-03-06T19:50:25.731Z,13.60
2019-03-06T19:52:54.823Z,13.60
2019-03-06T19:55:23.880Z,13.60
2019-03-06T19:57:54.805Z,13.70
2019-03-06T20:00:25.630Z,13.70
2019-03-06T20:02:54.243Z,13.60
2019-03-06T20:05:24.250Z,13.50
2019-03-06T20:07:52.864Z,13.60
2019-03-06T20:10:21.897Z,13.50
2019-03-06T20:12:50.494Z,13.50
2019-03-06T20:15:19.912Z,13.50
2019-03-06T20:17:48.537Z,13.50
2019-03-06T20:20:18.800Z,13.50
2019-03-06T20:22:48.181Z,13.50
2019-03-06T20:25:19.197Z,13.60
2019-03-06T20:27:48.051Z,13.60
2019-03-06T20:30:21.833Z,13.70
2019-03-06T20:32:50.657Z,13.70
2019-03-06T20:35:24.394Z,13.70
2019-03-06T20:37:53.613Z,13.70
2019-03-06T20:40:22.504Z,13.60
2019-03-06T20:42:51.331Z,13.70
2019-03-06T20:45:21.247Z,13.60
2019-03-06T20:47:49.980Z,13.60
2019-03-06T20:50:19.912Z,13.70
2019-03-06T20:52:50.314Z,13.70
2019-03-06T20:55:19.047Z,13.70
2019-03-06T20:57:47.595Z,13.70
2019-03-06T21:00:27.239Z,13.60
2019-03-06T21:02:55.836Z,13.60
2019-03-06T21:05:24.384Z,13.70
2019-03-06T21:07:53.074Z,13.80
2019-03-06T21:10:21.751Z,13.80
2019-03-06T21:12:50.341Z,13.70
2019-03-06T21:15:23.667Z,13.70
2019-03-06T21:17:52.258Z,13.70
2019-03-06T21:20:22.855Z,13.60
2019-03-06T21:22:51.595Z,13.60
2019-03-06T21:25:21.497Z,13.50
2019-03-06T21:27:50.650Z,13.50
2019-03-06T21:30:29.848Z,13.50
2019-03-06T21:32:58.441Z,13.50
2019-03-06T21:35:27.032Z,13.50
2019-03-06T21:37:55.678Z,13.40
2019-03-06T21:40:24.338Z,13.50
2019-03-06T21:42:52.945Z,13.40
2019-03-06T21:45:21.538Z,13.40
2019-03-06T21:47:50.098Z,13.30
2019-03-06T21:50:20.029Z,13.40
2019-03-06T21:52:48.618Z,13.40
2019-03-06T21:55:17.513Z,13.50
2019-03-06T21:57:47.264Z,13.50
2019-03-06T22:00:21.401Z,13.50
2019-03-06T22:02:50.158Z,13.60
2019-03-06T22:05:18.776Z,13.60
2019-03-06T22:07:47.561Z,13.60
2019-03-06T22:10:16.750Z,13.60
2019-03-06T22:12:45.685Z,13.50
2019-03-06T22:15:21.886Z,13.60
2019-03-06T22:17:50.546Z,13.60
2019-03-06T22:20:19.340Z,13.50
2019-03-06T22:22:47.906Z,13.60
2019-03-06T22:25:17.626Z,13.70
2019-03-06T22:27:46.316Z,13.70
2019-03-06T22:30:22.224Z,13.70
2019-03-06T22:32:50.104Z,13.60
2019-03-06T22:35:18.854Z,13.50
2019-03-06T22:37:47.478Z,13.50
2019-03-06T22:40:17.995Z,13.60
2019-03-06T22:42:46.571Z,13.60
2019-03-06T22:45:17.598Z,13.60
2019-03-06T22:47:46.294Z,13.50
2019-03-06T22:50:16.414Z,13.50
2019-03-06T22:52:44.998Z,13.50
2019-03-06T22:55:15.964Z,13.40
2019-03-06T22:57:44.642Z,13.50
2019-03-06T23:00:32.575Z,13.40
2019-03-06T23:03:01.248Z,13.40
2019-03-06T23:05:35.351Z,13.40
2019-03-06T23:08:03.981Z,13.30
2019-03-06T23:10:32.612Z,13.30
2019-03-06T23:13:01.391Z,13.30
2019-03-06T23:15:30.004Z,13.60
2019-03-06T23:17:59.084Z,13.60
2019-03-06T23:20:27.578Z,13.60
2019-03-06T23:22:56.223Z,13.50
2019-03-06T23:25:24.970Z,13.50
2019-03-06T23:27:53.517Z,13.50
2019-03-06T23:30:22.175Z,13.50
2019-03-06T23:32:50.982Z,13.60
2019-03-06T23:35:19.542Z,13.70
2019-03-06T23:37:48.288Z,13.70
2019-03-06T23:40:16.940Z,13.70
2019-03-06T23:42:47.975Z,13.70
2019-03-06T23:45:16.221Z,13.60
2019-03-06T23:47:44.799Z,13.70
2019-03-06T23:50:13.644Z,13.70
2019-03-06T23:52:55.904Z,13.60
2019-03-06T23:55:25.214Z,13.70
2019-03-06T23:57:54.402Z,13.90
